Terminal Aerodrome Forecast
Issued by NWS

Home | Current Version | Previous Version | Graphics & Text | Print | Product List | Glossary On
Versions: 1 2 3 4 5 6 7 8 9 10 11 12 13 14 15 16 17
000
FTUS43 KICT 301721
TAFHUT
TAF
KHUT 301721Z 3018/3118 12005KT P6SM SCT010 BKN250
     FM310400 16007KT P6SM SCT250
     FM310700 18005KT P6SM SCT150 BKN250=

USA.gov is the U.S. government's official web portal to all federal, state and local government web resources and services.